sensor_id;sensor_type;location;lat;lon;timestamp;P1;durP1;ratioP1;P2;durP2;ratioP2
14611;SDS011;7392;52.078;11.650;2023-04-24T00:00:05;2.90;;;2.37;;
14611;SDS011;7392;52.078;11.650;2023-04-24T00:02:35;3.57;;;2.47;;
14611;SDS011;7392;52.078;11.650;2023-04-24T00:05:05;3.13;;;2.70;;
14611;SDS011;7392;52.078;11.650;2023-04-24T00:07:33;3.40;;;2.20;;
14611;SDS011;7392;52.078;11.650;2023-04-24T00:10:02;2.57;;;2.30;;
14611;SDS011;7392;52.078;11.650;2023-04-24T00:12:31;2.67;;;2.37;;
14611;SDS011;7392;52.078;11.650;2023-04-24T00:14:59;2.83;;;2.00;;
14611;SDS011;7392;52.078;11.650;2023-04-24T00:17:27;2.00;;;1.80;;
14611;SDS011;7392;52.078;11.650;2023-04-24T00:19:56;2.13;;;1.53;;
14611;SDS011;7392;52.078;11.650;2023-04-24T00:22:25;1.40;;;1.30;;
14611;SDS011;7392;52.078;11.650;2023-04-24T00:24:53;1.93;;;1.30;;
14611;SDS011;7392;52.078;11.650;2023-04-24T00:27:21;2.10;;;1.40;;
14611;SDS011;7392;52.078;11.650;2023-04-24T00:29:50;3.17;;;1.50;;
14611;SDS011;7392;52.078;11.650;2023-04-24T00:32:18;1.40;;;1.30;;
14611;SDS011;7392;52.078;11.650;2023-04-24T00:34:47;1.60;;;1.20;;
14611;SDS011;7392;52.078;11.650;2023-04-24T00:37:15;1.30;;;1.20;;
14611;SDS011;7392;52.078;11.650;2023-04-24T00:39:43;1.57;;;1.30;;
14611;SDS011;7392;52.078;11.650;2023-04-24T00:42:11;2.53;;;1.37;;
14611;SDS011;7392;52.078;11.650;2023-04-24T00:44:39;1.73;;;1.20;;
14611;SDS011;7392;52.078;11.650;2023-04-24T00:47:09;1.83;;;0.90;;
14611;SDS011;7392;52.078;11.650;2023-04-24T00:49:38;1.33;;;1.00;;
14611;SDS011;7392;52.078;11.650;2023-04-24T00:52:06;1.67;;;0.90;;
14611;SDS011;7392;52.078;11.650;2023-04-24T00:54:35;0.87;;;0.83;;
14611;SDS011;7392;52.078;11.650;2023-04-24T00:57:03;1.17;;;0.97;;
14611;SDS011;7392;52.078;11.650;2023-04-24T00:59:31;1.20;;;1.00;;
14611;SDS011;7392;52.078;11.650;2023-04-24T01:01:59;1.63;;;0.90;;
14611;SDS011;7392;52.078;11.650;2023-04-24T01:04:28;1.10;;;0.80;;
14611;SDS011;7392;52.078;11.650;2023-04-24T01:06:57;1.47;;;1.00;;
14611;SDS011;7392;52.078;11.650;2023-04-24T01:09:25;1.13;;;0.90;;
14611;SDS011;7392;52.078;11.650;2023-04-24T01:11:53;1.20;;;0.80;;
14611;SDS011;7392;52.078;11.650;2023-04-24T01:14:22;0.80;;;0.80;;
14611;SDS011;7392;52.078;11.650;2023-04-24T01:16:50;2.80;;;1.00;;
14611;SDS011;7392;52.078;11.650;2023-04-24T01:19:19;1.10;;;1.00;;
14611;SDS011;7392;52.078;11.650;2023-04-24T01:21:49;1.20;;;0.73;;
14611;SDS011;7392;52.078;11.650;2023-04-24T01:24:22;1.20;;;1.10;;
14611;SDS011;7392;52.078;11.650;2023-04-24T01:26:49;1.80;;;1.03;;
14611;SDS011;7392;52.078;11.650;2023-04-24T01:29:17;1.30;;;1.10;;
14611;SDS011;7392;52.078;11.650;2023-04-24T01:31:45;1.10;;;1.00;;
14611;SDS011;7392;52.078;11.650;2023-04-24T01:34:13;1.73;;;1.17;;
14611;SDS011;7392;52.078;11.650;2023-04-24T01:36:43;2.70;;;1.00;;
14611;SDS011;7392;52.078;11.650;2023-04-24T01:39:12;1.77;;;1.13;;
14611;SDS011;7392;52.078;11.650;2023-04-24T01:41:47;1.80;;;1.40;;
14611;SDS011;7392;52.078;11.650;2023-04-24T01:44:28;1.27;;;0.97;;
14611;SDS011;7392;52.078;11.650;2023-04-24T01:47:25;1.47;;;1.10;;
14611;SDS011;7392;52.078;11.650;2023-04-24T01:53:10;2.53;;;2.00;;
14611;SDS011;7392;52.078;11.650;2023-04-24T01:55:43;2.03;;;1.77;;
14611;SDS011;7392;52.078;11.650;2023-04-24T02:02:16;1.40;;;1.23;;
14611;SDS011;7392;52.078;11.650;2023-04-24T02:04:44;1.23;;;1.00;;
14611;SDS011;7392;52.078;11.650;2023-04-24T02:07:12;0.80;;;0.80;;
14611;SDS011;7392;52.078;11.650;2023-04-24T02:09:40;1.17;;;1.07;;
14611;SDS011;7392;52.078;11.650;2023-04-24T02:12:17;1.00;;;0.90;;
14611;SDS011;7392;52.078;11.650;2023-04-24T02:14:44;0.87;;;0.83;;
14611;SDS011;7392;52.078;11.650;2023-04-24T02:17:12;1.00;;;1.00;;
14611;SDS011;7392;52.078;11.650;2023-04-24T02:22:24;2.33;;;0.90;;
14611;SDS011;7392;52.078;11.650;2023-04-24T02:24:52;1.30;;;0.80;;
14611;SDS011;7392;52.078;11.650;2023-04-24T02:27:20;1.20;;;0.90;;
14611;SDS011;7392;52.078;11.650;2023-04-24T02:35:47;0.90;;;0.70;;
14611;SDS011;7392;52.078;11.650;2023-04-24T02:38:16;0.90;;;0.73;;
14611;SDS011;7392;52.078;11.650;2023-04-24T02:40:44;1.17;;;0.97;;
14611;SDS011;7392;52.078;11.650;2023-04-24T02:43:11;1.00;;;0.90;;
14611;SDS011;7392;52.078;11.650;2023-04-24T02:45:39;0.97;;;0.87;;
14611;SDS011;7392;52.078;11.650;2023-04-24T02:48:07;0.97;;;0.80;;
14611;SDS011;7392;52.078;11.650;2023-04-24T02:50:35;0.77;;;0.77;;
14611;SDS011;7392;52.078;11.650;2023-04-24T02:53:03;1.30;;;0.83;;
14611;SDS011;7392;52.078;11.650;2023-04-24T02:55:32;0.80;;;0.70;;
14611;SDS011;7392;52.078;11.650;2023-04-24T02:58:00;1.20;;;1.10;;
14611;SDS011;7392;52.078;11.650;2023-04-24T03:00:27;2.17;;;1.20;;
14611;SDS011;7392;52.078;11.650;2023-04-24T03:02:56;2.50;;;1.20;;
14611;SDS011;7392;52.078;11.650;2023-04-24T03:05:24;1.17;;;1.07;;
14611;SDS011;7392;52.078;11.650;2023-04-24T03:07:51;1.27;;;1.17;;
14611;SDS011;7392;52.078;11.650;2023-04-24T03:10:20;1.30;;;1.10;;
14611;SDS011;7392;52.078;11.650;2023-04-24T03:12:50;2.43;;;1.40;;
14611;SDS011;7392;52.078;11.650;2023-04-24T03:15:18;1.30;;;1.20;;
14611;SDS011;7392;52.078;11.650;2023-04-24T03:17:45;1.23;;;1.10;;
14611;SDS011;7392;52.078;11.650;2023-04-24T03:20:14;0.80;;;0.80;;
14611;SDS011;7392;52.078;11.650;2023-04-24T03:22:42;1.60;;;1.40;;
14611;SDS011;7392;52.078;11.650;2023-04-24T03:25:10;1.13;;;1.00;;
14611;SDS011;7392;52.078;11.650;2023-04-24T03:27:38;1.13;;;1.03;;
14611;SDS011;7392;52.078;11.650;2023-04-24T03:30:17;1.57;;;1.10;;
14611;SDS011;7392;52.078;11.650;2023-04-24T03:32:50;1.10;;;1.00;;
14611;SDS011;7392;52.078;11.650;2023-04-24T03:35:30;0.87;;;0.80;;
14611;SDS011;7392;52.078;11.650;2023-04-24T03:38:08;0.87;;;0.87;;
14611;SDS011;7392;52.078;11.650;2023-04-24T03:40:55;1.17;;;1.07;;
14611;SDS011;7392;52.078;11.650;2023-04-24T03:43:34;0.80;;;0.80;;
14611;SDS011;7392;52.078;11.650;2023-04-24T03:46:04;0.70;;;0.70;;
14611;SDS011;7392;52.078;11.650;2023-04-24T03:48:37;0.87;;;0.70;;
14611;SDS011;7392;52.078;11.650;2023-04-24T03:51:06;0.77;;;0.73;;
14611;SDS011;7392;52.078;11.650;2023-04-24T03:53:35;1.00;;;0.90;;
14611;SDS011;7392;52.078;11.650;2023-04-24T03:56:03;0.93;;;0.83;;
14611;SDS011;7392;52.078;11.650;2023-04-24T03:58:32;0.83;;;0.80;;
14611;SDS011;7392;52.078;11.650;2023-04-24T04:01:00;1.00;;;0.90;;
14611;SDS011;7392;52.078;11.650;2023-04-24T04:03:49;1.10;;;1.00;;
14611;SDS011;7392;52.078;11.650;2023-04-24T04:06:20;2.50;;;1.00;;
14611;SDS011;7392;52.078;11.650;2023-04-24T04:08:50;0.93;;;0.87;;
14611;SDS011;7392;52.078;11.650;2023-04-24T04:11:18;0.80;;;0.80;;
14611;SDS011;7392;52.078;11.650;2023-04-24T04:13:46;2.40;;;0.70;;
14611;SDS011;7392;52.078;11.650;2023-04-24T04:16:17;0.50;;;0.50;;
14611;SDS011;7392;52.078;11.650;2023-04-24T04:18:47;0.80;;;0.80;;
14611;SDS011;7392;52.078;11.650;2023-04-24T04:21:16;0.80;;;0.80;;
14611;SDS011;7392;52.078;11.650;2023-04-24T04:23:44;0.50;;;0.50;;
14611;SDS011;7392;52.078;11.650;2023-04-24T04:26:16;0.60;;;0.60;;
14611;SDS011;7392;52.078;11.650;2023-04-24T04:29:05;0.70;;;0.70;;
14611;SDS011;7392;52.078;11.650;2023-04-24T04:31:37;0.53;;;0.53;;
14611;SDS011;7392;52.078;11.650;2023-04-24T04:34:09;0.47;;;0.47;;
14611;SDS011;7392;52.078;11.650;2023-04-24T04:36:40;0.70;;;0.70;;
14611;SDS011;7392;52.078;11.650;2023-04-24T04:39:26;0.80;;;0.70;;
14611;SDS011;7392;52.078;11.650;2023-04-24T04:42:05;0.90;;;0.70;;
14611;SDS011;7392;52.078;11.650;2023-04-24T04:44:38;0.93;;;0.90;;
14611;SDS011;7392;52.078;11.650;2023-04-24T04:47:08;0.80;;;0.80;;
14611;SDS011;7392;52.078;11.650;2023-04-24T04:49:37;0.70;;;0.70;;
14611;SDS011;7392;52.078;11.650;2023-04-24T04:52:11;0.90;;;0.73;;
14611;SDS011;7392;52.078;11.650;2023-04-24T04:54:39;0.73;;;0.73;;
14611;SDS011;7392;52.078;11.650;2023-04-24T04:57:07;0.53;;;0.53;;
14611;SDS011;7392;52.078;11.650;2023-04-24T04:59:35;0.80;;;0.73;;
14611;SDS011;7392;52.078;11.650;2023-04-24T05:02:08;0.60;;;0.60;;
14611;SDS011;7392;52.078;11.650;2023-04-24T05:04:36;0.50;;;0.50;;
14611;SDS011;7392;52.078;11.650;2023-04-24T05:07:04;0.50;;;0.50;;
14611;SDS011;7392;52.078;11.650;2023-04-24T05:09:36;0.53;;;0.53;;
14611;SDS011;7392;52.078;11.650;2023-04-24T05:12:05;0.77;;;0.73;;
14611;SDS011;7392;52.078;11.650;2023-04-24T05:14:40;0.70;;;0.57;;
14611;SDS011;7392;52.078;11.650;2023-04-24T05:17:09;1.10;;;1.00;;
14611;SDS011;7392;52.078;11.650;2023-04-24T05:19:37;0.70;;;0.70;;
14611;SDS011;7392;52.078;11.650;2023-04-24T05:22:06;1.33;;;1.00;;
14611;SDS011;7392;52.078;11.650;2023-04-24T05:24:45;1.00;;;0.90;;
14611;SDS011;7392;52.078;11.650;2023-04-24T05:27:31;1.23;;;0.83;;
14611;SDS011;7392;52.078;11.650;2023-04-24T05:29:59;0.80;;;0.80;;
14611;SDS011;7392;52.078;11.650;2023-04-24T05:32:27;1.37;;;1.10;;
14611;SDS011;7392;52.078;11.650;2023-04-24T05:34:55;1.63;;;1.20;;
14611;SDS011;7392;52.078;11.650;2023-04-24T05:37:24;0.80;;;0.80;;
14611;SDS011;7392;52.078;11.650;2023-04-24T05:39:53;1.20;;;1.00;;
14611;SDS011;7392;52.078;11.650;2023-04-24T05:42:22;1.33;;;0.83;;
14611;SDS011;7392;52.078;11.650;2023-04-24T05:44:49;0.80;;;0.80;;
14611;SDS011;7392;52.078;11.650;2023-04-24T05:47:19;0.90;;;0.80;;
14611;SDS011;7392;52.078;11.650;2023-04-24T05:49:54;1.20;;;1.10;;
14611;SDS011;7392;52.078;11.650;2023-04-24T05:52:29;1.50;;;1.07;;
14611;SDS011;7392;52.078;11.650;2023-04-24T05:55:10;1.70;;;1.20;;
14611;SDS011;7392;52.078;11.650;2023-04-24T05:57:41;1.67;;;1.13;;
14611;SDS011;7392;52.078;11.650;2023-04-24T06:00:11;2.70;;;1.00;;
14611;SDS011;7392;52.078;11.650;2023-04-24T06:02:44;1.10;;;0.93;;
14611;SDS011;7392;52.078;11.650;2023-04-24T06:05:21;2.47;;;1.10;;
14611;SDS011;7392;52.078;11.650;2023-04-24T06:07:52;1.47;;;1.17;;
14611;SDS011;7392;52.078;11.650;2023-04-24T06:10:23;1.10;;;0.90;;
14611;SDS011;7392;52.078;11.650;2023-04-24T06:12:51;0.90;;;0.77;;
14611;SDS011;7392;52.078;11.650;2023-04-24T06:15:22;1.47;;;1.00;;
14611;SDS011;7392;52.078;11.650;2023-04-24T06:17:54;1.30;;;1.10;;
14611;SDS011;7392;52.078;11.650;2023-04-24T06:20:22;1.07;;;0.80;;
14611;SDS011;7392;52.078;11.650;2023-04-24T06:22:50;2.33;;;1.30;;
14611;SDS011;7392;52.078;11.650;2023-04-24T06:25:17;1.23;;;1.10;;
14611;SDS011;7392;52.078;11.650;2023-04-24T06:27:47;1.37;;;1.10;;
14611;SDS011;7392;52.078;11.650;2023-04-24T06:30:15;2.70;;;1.33;;
14611;SDS011;7392;52.078;11.650;2023-04-24T06:32:43;1.87;;;1.30;;
14611;SDS011;7392;52.078;11.650;2023-04-24T06:35:11;1.40;;;1.30;;
14611;SDS011;7392;52.078;11.650;2023-04-24T06:37:39;2.53;;;1.50;;
14611;SDS011;7392;52.078;11.650;2023-04-24T06:40:07;1.47;;;1.20;;
14611;SDS011;7392;52.078;11.650;2023-04-24T06:42:35;1.70;;;1.07;;
14611;SDS011;7392;52.078;11.650;2023-04-24T06:45:08;1.07;;;0.97;;
14611;SDS011;7392;52.078;11.650;2023-04-24T06:47:44;2.80;;;1.30;;
14611;SDS011;7392;52.078;11.650;2023-04-24T06:50:11;2.13;;;1.70;;
14611;SDS011;7392;52.078;11.650;2023-04-24T06:52:40;3.30;;;1.60;;
14611;SDS011;7392;52.078;11.650;2023-04-24T06:55:08;1.40;;;1.10;;
14611;SDS011;7392;52.078;11.650;2023-04-24T06:57:37;1.50;;;1.40;;
14611;SDS011;7392;52.078;11.650;2023-04-24T07:00:05;2.07;;;1.10;;
14611;SDS011;7392;52.078;11.650;2023-04-24T07:02:37;3.37;;;1.53;;
14611;SDS011;7392;52.078;11.650;2023-04-24T07:05:05;1.87;;;1.30;;
14611;SDS011;7392;52.078;11.650;2023-04-24T07:07:34;1.77;;;1.27;;
14611;SDS011;7392;52.078;11.650;2023-04-24T07:10:04;2.60;;;1.20;;
14611;SDS011;7392;52.078;11.650;2023-04-24T07:12:32;1.63;;;1.27;;
14611;SDS011;7392;52.078;11.650;2023-04-24T07:15:00;4.03;;;1.50;;
14611;SDS011;7392;52.078;11.650;2023-04-24T07:17:28;1.53;;;1.13;;
14611;SDS011;7392;52.078;11.650;2023-04-24T07:19:57;1.53;;;1.00;;
14611;SDS011;7392;52.078;11.650;2023-04-24T07:22:25;2.17;;;1.10;;
14611;SDS011;7392;52.078;11.650;2023-04-24T07:24:52;1.37;;;1.17;;
14611;SDS011;7392;52.078;11.650;2023-04-24T07:27:20;1.30;;;1.07;;
14611;SDS011;7392;52.078;11.650;2023-04-24T07:29:48;1.20;;;1.03;;
14611;SDS011;7392;52.078;11.650;2023-04-24T07:32:16;1.87;;;0.97;;
14611;SDS011;7392;52.078;11.650;2023-04-24T07:34:43;1.30;;;1.07;;
14611;SDS011;7392;52.078;11.650;2023-04-24T07:37:12;1.40;;;1.07;;
14611;SDS011;7392;52.078;11.650;2023-04-24T07:39:40;1.30;;;1.07;;
14611;SDS011;7392;52.078;11.650;2023-04-24T07:42:20;2.07;;;1.17;;
14611;SDS011;7392;52.078;11.650;2023-04-24T07:44:48;1.40;;;0.93;;
14611;SDS011;7392;52.078;11.650;2023-04-24T07:47:15;1.10;;;0.83;;
14611;SDS011;7392;52.078;11.650;2023-04-24T07:49:43;1.50;;;1.00;;
14611;SDS011;7392;52.078;11.650;2023-04-24T07:52:12;2.57;;;1.10;;
14611;SDS011;7392;52.078;11.650;2023-04-24T07:54:40;1.10;;;1.00;;
14611;SDS011;7392;52.078;11.650;2023-04-24T07:57:09;2.10;;;1.17;;
14611;SDS011;7392;52.078;11.650;2023-04-24T07:59:37;1.60;;;1.10;;
14611;SDS011;7392;52.078;11.650;2023-04-24T08:02:05;1.93;;;1.10;;
14611;SDS011;7392;52.078;11.650;2023-04-24T08:04:33;1.77;;;1.10;;
14611;SDS011;7392;52.078;11.650;2023-04-24T08:07:01;0.90;;;0.87;;
14611;SDS011;7392;52.078;11.650;2023-04-24T08:09:30;2.33;;;0.90;;
14611;SDS011;7392;52.078;11.650;2023-04-24T08:11:58;2.10;;;0.77;;
14611;SDS011;7392;52.078;11.650;2023-04-24T08:14:26;1.57;;;0.90;;
14611;SDS011;7392;52.078;11.650;2023-04-24T08:16:53;0.87;;;0.60;;
14611;SDS011;7392;52.078;11.650;2023-04-24T08:19:23;2.50;;;1.00;;
14611;SDS011;7392;52.078;11.650;2023-04-24T08:21:54;1.87;;;0.80;;
14611;SDS011;7392;52.078;11.650;2023-04-24T08:24:22;3.30;;;1.00;;
14611;SDS011;7392;52.078;11.650;2023-04-24T08:26:51;1.27;;;0.77;;
14611;SDS011;7392;52.078;11.650;2023-04-24T08:29:23;1.27;;;0.80;;
14611;SDS011;7392;52.078;11.650;2023-04-24T08:31:50;1.27;;;0.87;;
14611;SDS011;7392;52.078;11.650;2023-04-24T08:34:20;1.23;;;1.10;;
14611;SDS011;7392;52.078;11.650;2023-04-24T08:36:49;1.70;;;1.10;;
14611;SDS011;7392;52.078;11.650;2023-04-24T08:39:17;1.43;;;0.83;;
14611;SDS011;7392;52.078;11.650;2023-04-24T08:41:45;1.30;;;0.80;;
14611;SDS011;7392;52.078;11.650;2023-04-24T08:44:16;1.93;;;0.90;;
14611;SDS011;7392;52.078;11.650;2023-04-24T08:46:47;1.00;;;0.90;;
14611;SDS011;7392;52.078;11.650;2023-04-24T08:49:17;0.70;;;0.70;;
14611;SDS011;7392;52.078;11.650;2023-04-24T08:51:46;2.30;;;0.83;;
14611;SDS011;7392;52.078;11.650;2023-04-24T08:54:14;1.30;;;0.80;;
14611;SDS011;7392;52.078;11.650;2023-04-24T08:56:42;1.03;;;0.83;;
14611;SDS011;7392;52.078;11.650;2023-04-24T08:59:11;0.83;;;0.70;;
14611;SDS011;7392;52.078;11.650;2023-04-24T09:01:41;2.43;;;0.80;;
14611;SDS011;7392;52.078;11.650;2023-04-24T09:04:09;1.77;;;0.70;;
14611;SDS011;7392;52.078;11.650;2023-04-24T09:06:39;1.20;;;0.70;;
14611;SDS011;7392;52.078;11.650;2023-04-24T09:09:07;2.73;;;0.93;;
14611;SDS011;7392;52.078;11.650;2023-04-24T09:11:37;2.70;;;1.10;;
14611;SDS011;7392;52.078;11.650;2023-04-24T09:14:06;0.83;;;0.83;;
14611;SDS011;7392;52.078;11.650;2023-04-24T09:16:36;2.17;;;1.07;;
14611;SDS011;7392;52.078;11.650;2023-04-24T09:19:05;2.00;;;0.77;;
14611;SDS011;7392;52.078;11.650;2023-04-24T09:21:33;1.13;;;0.70;;
14611;SDS011;7392;52.078;11.650;2023-04-24T09:24:03;0.70;;;0.60;;
14611;SDS011;7392;52.078;11.650;2023-04-24T09:26:34;0.83;;;0.70;;
14611;SDS011;7392;52.078;11.650;2023-04-24T09:29:03;1.23;;;0.63;;
14611;SDS011;7392;52.078;11.650;2023-04-24T09:31:31;2.23;;;1.03;;
14611;SDS011;7392;52.078;11.650;2023-04-24T09:34:00;1.10;;;0.80;;
14611;SDS011;7392;52.078;11.650;2023-04-24T09:36:34;0.77;;;0.73;;
14611;SDS011;7392;52.078;11.650;2023-04-24T09:39:04;0.70;;;0.70;;
14611;SDS011;7392;52.078;11.650;2023-04-24T09:41:34;1.37;;;1.00;;
14611;SDS011;7392;52.078;11.650;2023-04-24T09:44:10;2.67;;;0.70;;
14611;SDS011;7392;52.078;11.650;2023-04-24T09:46:40;1.37;;;0.90;;
14611;SDS011;7392;52.078;11.650;2023-04-24T09:49:09;1.10;;;0.70;;
14611;SDS011;7392;52.078;11.650;2023-04-24T09:51:41;1.03;;;0.83;;
14611;SDS011;7392;52.078;11.650;2023-04-24T09:54:13;0.73;;;0.63;;
14611;SDS011;7392;52.078;11.650;2023-04-24T09:56:43;2.07;;;1.00;;
14611;SDS011;7392;52.078;11.650;2023-04-24T09:59:12;1.70;;;0.87;;
14611;SDS011;7392;52.078;11.650;2023-04-24T10:01:40;1.03;;;0.80;;
14611;SDS011;7392;52.078;11.650;2023-04-24T10:04:18;1.07;;;0.80;;
14611;SDS011;7392;52.078;11.650;2023-04-24T10:06:49;2.50;;;1.00;;
14611;SDS011;7392;52.078;11.650;2023-04-24T10:09:17;1.13;;;0.83;;
14611;SDS011;7392;52.078;11.650;2023-04-24T10:11:47;0.83;;;0.70;;
14611;SDS011;7392;52.078;11.650;2023-04-24T10:14:16;0.70;;;0.70;;
14611;SDS011;7392;52.078;11.650;2023-04-24T10:16:46;0.90;;;0.70;;
14611;SDS011;7392;52.078;11.650;2023-04-24T10:19:16;0.80;;;0.80;;
14611;SDS011;7392;52.078;11.650;2023-04-24T10:21:45;2.10;;;1.10;;
14611;SDS011;7392;52.078;11.650;2023-04-24T10:24:15;1.10;;;0.93;;
14611;SDS011;7392;52.078;11.650;2023-04-24T10:26:44;0.87;;;0.80;;
14611;SDS011;7392;52.078;11.650;2023-04-24T10:29:15;0.97;;;0.87;;
14611;SDS011;7392;52.078;11.650;2023-04-24T10:31:44;1.10;;;1.00;;
14611;SDS011;7392;52.078;11.650;2023-04-24T10:34:14;2.83;;;1.10;;
14611;SDS011;7392;52.078;11.650;2023-04-24T10:36:43;2.20;;;1.13;;
14611;SDS011;7392;52.078;11.650;2023-04-24T10:39:16;1.23;;;1.13;;
14611;SDS011;7392;52.078;11.650;2023-04-24T10:41:53;0.97;;;0.80;;
14611;SDS011;7392;52.078;11.650;2023-04-24T10:44:23;1.20;;;0.80;;
14611;SDS011;7392;52.078;11.650;2023-04-24T10:46:52;1.20;;;1.10;;
14611;SDS011;7392;52.078;11.650;2023-04-24T10:49:27;1.40;;;1.30;;
14611;SDS011;7392;52.078;11.650;2023-04-24T10:52:00;1.50;;;0.87;;
14611;SDS011;7392;52.078;11.650;2023-04-24T10:54:34;1.20;;;0.90;;
14611;SDS011;7392;52.078;11.650;2023-04-24T11:00:15;0.90;;;0.90;;
14611;SDS011;7392;52.078;11.650;2023-04-24T11:02:45;1.47;;;1.07;;
14611;SDS011;7392;52.078;11.650;2023-04-24T11:05:17;1.47;;;1.07;;
14611;SDS011;7392;52.078;11.650;2023-04-24T11:10:41;0.80;;;0.73;;
14611;SDS011;7392;52.078;11.650;2023-04-24T11:13:14;1.37;;;0.90;;
14611;SDS011;7392;52.078;11.650;2023-04-24T11:15:42;0.87;;;0.87;;
14611;SDS011;7392;52.078;11.650;2023-04-24T11:18:13;1.30;;;1.00;;
14611;SDS011;7392;52.078;11.650;2023-04-24T11:20:42;1.40;;;1.00;;
14611;SDS011;7392;52.078;11.650;2023-04-24T11:23:11;1.70;;;1.20;;
14611;SDS011;7392;52.078;11.650;2023-04-24T11:25:42;1.83;;;1.00;;
14611;SDS011;7392;52.078;11.650;2023-04-24T11:28:10;3.17;;;1.20;;
14611;SDS011;7392;52.078;11.650;2023-04-24T11:30:42;2.87;;;1.10;;
14611;SDS011;7392;52.078;11.650;2023-04-24T11:33:10;0.90;;;0.90;;
14611;SDS011;7392;52.078;11.650;2023-04-24T11:35:45;0.90;;;0.90;;
14611;SDS011;7392;52.078;11.650;2023-04-24T11:38:34;2.30;;;0.90;;
14611;SDS011;7392;52.078;11.650;2023-04-24T11:41:18;1.60;;;1.10;;
14611;SDS011;7392;52.078;11.650;2023-04-24T11:43:46;2.13;;;1.00;;
14611;SDS011;7392;52.078;11.650;2023-04-24T11:46:16;2.87;;;1.17;;
14611;SDS011;7392;52.078;11.650;2023-04-24T11:48:44;1.83;;;1.20;;
14611;SDS011;7392;52.078;11.650;2023-04-24T11:51:12;3.97;;;1.30;;
14611;SDS011;7392;52.078;11.650;2023-04-24T11:53:40;1.33;;;1.20;;
14611;SDS011;7392;52.078;11.650;2023-04-24T11:56:09;2.27;;;1.00;;
14611;SDS011;7392;52.078;11.650;2023-04-24T11:58:38;1.27;;;1.10;;
14611;SDS011;7392;52.078;11.650;2023-04-24T12:01:06;1.23;;;1.03;;
14611;SDS011;7392;52.078;11.650;2023-04-24T12:03:34;1.40;;;1.17;;
14611;SDS011;7392;52.078;11.650;2023-04-24T12:06:05;3.80;;;1.33;;
14611;SDS011;7392;52.078;11.650;2023-04-24T12:08:34;2.63;;;1.10;;
14611;SDS011;7392;52.078;11.650;2023-04-24T12:11:04;1.43;;;1.30;;
14611;SDS011;7392;52.078;11.650;2023-04-24T12:13:34;1.50;;;1.00;;
14611;SDS011;7392;52.078;11.650;2023-04-24T12:16:04;1.63;;;1.10;;
14611;SDS011;7392;52.078;11.650;2023-04-24T12:18:32;2.40;;;1.40;;
14611;SDS011;7392;52.078;11.650;2023-04-24T12:21:16;1.50;;;1.17;;
14611;SDS011;7392;52.078;11.650;2023-04-24T12:23:48;1.40;;;1.30;;
14611;SDS011;7392;52.078;11.650;2023-04-24T12:26:17;2.27;;;1.50;;
14611;SDS011;7392;52.078;11.650;2023-04-24T12:28:46;1.17;;;1.00;;
14611;SDS011;7392;52.078;11.650;2023-04-24T12:31:17;1.70;;;1.00;;
14611;SDS011;7392;52.078;11.650;2023-04-24T12:33:45;1.13;;;1.03;;
14611;SDS011;7392;52.078;11.650;2023-04-24T12:36:12;1.20;;;1.00;;
14611;SDS011;7392;52.078;11.650;2023-04-24T12:38:43;1.60;;;0.87;;
14611;SDS011;7392;52.078;11.650;2023-04-24T12:41:13;1.13;;;1.03;;
14611;SDS011;7392;52.078;11.650;2023-04-24T12:43:50;1.40;;;0.90;;
14611;SDS011;7392;52.078;11.650;2023-04-24T12:46:20;1.13;;;1.03;;
14611;SDS011;7392;52.078;11.650;2023-04-24T12:48:48;1.97;;;1.30;;
14611;SDS011;7392;52.078;11.650;2023-04-24T12:51:17;2.13;;;0.90;;
14611;SDS011;7392;52.078;11.650;2023-04-24T12:53:44;1.80;;;1.20;;
14611;SDS011;7392;52.078;11.650;2023-04-24T12:56:21;1.10;;;1.00;;
14611;SDS011;7392;52.078;11.650;2023-04-24T12:58:50;1.50;;;1.20;;
14611;SDS011;7392;52.078;11.650;2023-04-24T13:01:18;3.63;;;1.37;;
14611;SDS011;7392;52.078;11.650;2023-04-24T13:03:49;1.13;;;1.03;;
14611;SDS011;7392;52.078;11.650;2023-04-24T13:06:19;1.27;;;1.17;;
14611;SDS011;7392;52.078;11.650;2023-04-24T13:08:47;1.60;;;1.20;;
14611;SDS011;7392;52.078;11.650;2023-04-24T13:11:15;1.73;;;0.90;;
14611;SDS011;7392;52.078;11.650;2023-04-24T13:13:42;2.67;;;1.07;;
14611;SDS011;7392;52.078;11.650;2023-04-24T13:16:10;2.20;;;1.20;;
14611;SDS011;7392;52.078;11.650;2023-04-24T13:18:38;1.30;;;1.10;;
14611;SDS011;7392;52.078;11.650;2023-04-24T13:21:10;1.03;;;0.90;;
14611;SDS011;7392;52.078;11.650;2023-04-24T13:23:38;2.60;;;1.10;;
14611;SDS011;7392;52.078;11.650;2023-04-24T13:26:06;0.90;;;0.90;;
14611;SDS011;7392;52.078;11.650;2023-04-24T13:28:33;0.90;;;0.87;;
14611;SDS011;7392;52.078;11.650;2023-04-24T13:31:01;3.40;;;1.07;;
14611;SDS011;7392;52.078;11.650;2023-04-24T13:33:29;2.23;;;1.10;;
14611;SDS011;7392;52.078;11.650;2023-04-24T13:35:57;1.00;;;0.90;;
14611;SDS011;7392;52.078;11.650;2023-04-24T13:38:26;1.00;;;0.90;;
14611;SDS011;7392;52.078;11.650;2023-04-24T13:40:53;1.40;;;0.87;;
14611;SDS011;7392;52.078;11.650;2023-04-24T13:43:21;1.67;;;1.00;;
14611;SDS011;7392;52.078;11.650;2023-04-24T13:45:49;2.23;;;1.10;;
14611;SDS011;7392;52.078;11.650;2023-04-24T13:48:17;1.30;;;0.73;;
14611;SDS011;7392;52.078;11.650;2023-04-24T13:50:44;0.80;;;0.80;;
14611;SDS011;7392;52.078;11.650;2023-04-24T13:53:14;1.73;;;1.10;;
14611;SDS011;7392;52.078;11.650;2023-04-24T13:55:43;1.50;;;1.00;;
14611;SDS011;7392;52.078;11.650;2023-04-24T13:58:11;1.47;;;1.07;;
14611;SDS011;7392;52.078;11.650;2023-04-24T14:00:40;2.80;;;1.17;;
14611;SDS011;7392;52.078;11.650;2023-04-24T14:03:07;1.93;;;1.03;;
14611;SDS011;7392;52.078;11.650;2023-04-24T14:05:35;1.40;;;0.80;;
14611;SDS011;7392;52.078;11.650;2023-04-24T14:08:04;1.67;;;1.10;;
14611;SDS011;7392;52.078;11.650;2023-04-24T14:10:32;1.33;;;1.23;;
14611;SDS011;7392;52.078;11.650;2023-04-24T14:13:01;1.43;;;1.10;;
14611;SDS011;7392;52.078;11.650;2023-04-24T14:15:29;1.77;;;1.10;;
14611;SDS011;7392;52.078;11.650;2023-04-24T14:17:57;0.80;;;0.80;;
14611;SDS011;7392;52.078;11.650;2023-04-24T14:20:24;1.00;;;0.70;;
14611;SDS011;7392;52.078;11.650;2023-04-24T14:22:52;1.00;;;0.90;;
14611;SDS011;7392;52.078;11.650;2023-04-24T14:25:20;0.60;;;0.60;;
14611;SDS011;7392;52.078;11.650;2023-04-24T14:27:49;1.97;;;0.90;;
14611;SDS011;7392;52.078;11.650;2023-04-24T14:30:18;0.93;;;0.83;;
14611;SDS011;7392;52.078;11.650;2023-04-24T14:32:47;0.60;;;0.60;;
14611;SDS011;7392;52.078;11.650;2023-04-24T14:35:16;2.77;;;0.77;;
14611;SDS011;7392;52.078;11.650;2023-04-24T14:37:45;0.90;;;0.47;;
14611;SDS011;7392;52.078;11.650;2023-04-24T14:40:12;2.10;;;0.80;;
14611;SDS011;7392;52.078;11.650;2023-04-24T14:43:01;1.40;;;0.70;;
14611;SDS011;7392;52.078;11.650;2023-04-24T14:45:30;0.83;;;0.70;;
14611;SDS011;7392;52.078;11.650;2023-04-24T14:47:59;0.70;;;0.70;;
14611;SDS011;7392;52.078;11.650;2023-04-24T14:50:27;1.20;;;0.57;;
14611;SDS011;7392;52.078;11.650;2023-04-24T14:52:55;0.53;;;0.50;;
14611;SDS011;7392;52.078;11.650;2023-04-24T14:55:23;0.70;;;0.60;;
14611;SDS011;7392;52.078;11.650;2023-04-24T14:57:55;0.80;;;0.47;;
14611;SDS011;7392;52.078;11.650;2023-04-24T15:00:23;1.67;;;0.73;;
14611;SDS011;7392;52.078;11.650;2023-04-24T15:02:52;1.77;;;0.80;;
14611;SDS011;7392;52.078;11.650;2023-04-24T15:05:22;0.87;;;0.80;;
14611;SDS011;7392;52.078;11.650;2023-04-24T15:07:51;0.60;;;0.60;;
14611;SDS011;7392;52.078;11.650;2023-04-24T15:10:19;4.50;;;0.63;;
14611;SDS011;7392;52.078;11.650;2023-04-24T15:12:49;1.70;;;0.70;;
14611;SDS011;7392;52.078;11.650;2023-04-24T15:15:17;3.77;;;0.50;;
14611;SDS011;7392;52.078;11.650;2023-04-24T15:17:46;1.57;;;0.60;;
14611;SDS011;7392;52.078;11.650;2023-04-24T15:20:15;1.50;;;0.40;;
14611;SDS011;7392;52.078;11.650;2023-04-24T15:22:42;0.90;;;0.40;;
14611;SDS011;7392;52.078;11.650;2023-04-24T15:25:10;1.17;;;0.40;;